sensor_id;sensor_type;location;lat;lon;timestamp;pressure;altitude;pressure_sealevel;temperature;humidity
78562;BME280;68963;52.138;5.446;2023-06-01T00:00:53;102598.00;;;12.06;85.41
78562;BME280;68963;52.138;5.446;2023-06-01T00:03:22;102589.13;;;11.89;85.94
78562;BME280;68963;52.138;5.446;2023-06-01T00:05:50;102593.88;;;11.85;86.26
78562;BME280;68963;52.138;5.446;2023-06-01T00:08:17;102591.09;;;11.87;86.43
78562;BME280;68963;52.138;5.446;2023-06-01T00:10:43;102591.75;;;11.89;86.14
78562;BME280;68963;52.138;5.446;2023-06-01T00:13:10;102582.31;;;12.04;86.42
78562;BME280;68963;52.138;5.446;2023-06-01T00:15:37;102585.84;;;12.13;85.85
78562;BME280;68963;52.138;5.446;2023-06-01T00:18:03;102587.25;;;12.07;85.61
78562;BME280;68963;52.138;5.446;2023-06-01T00:20:32;102579.69;;;12.04;85.90
78562;BME280;68963;52.138;5.446;2023-06-01T00:22:58;102577.66;;;11.98;85.87
78562;BME280;68963;52.138;5.446;2023-06-01T00:25:26;102581.28;;;11.97;86.26
78562;BME280;68963;52.138;5.446;2023-06-01T00:27:52;102579.00;;;12.02;86.23
78562;BME280;68963;52.138;5.446;2023-06-01T00:30:19;102591.91;;;12.05;86.48
78562;BME280;68963;52.138;5.446;2023-06-01T00:32:45;102576.88;;;12.06;86.38
78562;BME280;68963;52.138;5.446;2023-06-01T00:35:12;102574.59;;;12.11;86.04
78562;BME280;68963;52.138;5.446;2023-06-01T00:37:38;102578.72;;;12.14;85.64
78562;BME280;68963;52.138;5.446;2023-06-01T00:40:05;102578.22;;;12.10;86.06
78562;BME280;68963;52.138;5.446;2023-06-01T00:42:32;102578.94;;;11.94;86.11
78562;BME280;68963;52.138;5.446;2023-06-01T00:44:59;102576.00;;;11.97;86.78
78562;BME280;68963;52.138;5.446;2023-06-01T00:47:25;102573.09;;;12.08;86.14
78562;BME280;68963;52.138;5.446;2023-06-01T00:49:52;102579.97;;;12.01;86.09
78562;BME280;68963;52.138;5.446;2023-06-01T00:52:20;102574.31;;;11.96;86.07
78562;BME280;68963;52.138;5.446;2023-06-01T00:54:47;102585.44;;;11.82;86.87
78562;BME280;68963;52.138;5.446;2023-06-01T00:57:14;102574.25;;;11.88;86.70
78562;BME280;68963;52.138;5.446;2023-06-01T00:59:41;102582.72;;;11.92;86.83
78562;BME280;68963;52.138;5.446;2023-06-01T01:02:07;102573.13;;;11.91;86.81
78562;BME280;68963;52.138;5.446;2023-06-01T01:04:34;102577.06;;;11.87;86.98
78562;BME280;68963;52.138;5.446;2023-06-01T01:07:25;102579.16;;;11.83;86.76
78562;BME280;68963;52.138;5.446;2023-06-01T01:12:50;102568.47;;;11.84;86.87
78562;BME280;68963;52.138;5.446;2023-06-01T01:15:23;102572.91;;;11.84;86.74
78562;BME280;68963;52.138;5.446;2023-06-01T01:17:54;102581.53;;;11.86;86.71
78562;BME280;68963;52.138;5.446;2023-06-01T01:20:29;102572.09;;;11.83;86.59
78562;BME280;68963;52.138;5.446;2023-06-01T01:23:06;102571.91;;;11.85;86.78
78562;BME280;68963;52.138;5.446;2023-06-01T01:28:28;102572.22;;;11.82;86.64
78562;BME280;68963;52.138;5.446;2023-06-01T01:30:59;102575.94;;;11.71;87.23
78562;BME280;68963;52.138;5.446;2023-06-01T01:33:29;102576.88;;;11.70;87.45
78562;BME280;68963;52.138;5.446;2023-06-01T01:35:56;102570.47;;;11.73;87.57
78562;BME280;68963;52.138;5.446;2023-06-01T01:38:23;102575.47;;;11.58;87.81
78562;BME280;68963;52.138;5.446;2023-06-01T01:40:49;102577.59;;;11.54;88.58
78562;BME280;68963;52.138;5.446;2023-06-01T01:43:20;102572.47;;;11.53;88.21
78562;BME280;68963;52.138;5.446;2023-06-01T01:45:54;102586.50;;;11.53;87.69
78562;BME280;68963;52.138;5.446;2023-06-01T01:48:29;102578.19;;;11.48;87.98
78562;BME280;68963;52.138;5.446;2023-06-01T01:51:03;102578.50;;;11.45;88.19
78562;BME280;68963;52.138;5.446;2023-06-01T01:53:32;102575.25;;;11.51;88.07
78562;BME280;68963;52.138;5.446;2023-06-01T01:56:01;102578.56;;;11.53;88.04
78562;BME280;68963;52.138;5.446;2023-06-01T01:58:29;102570.50;;;11.55;88.23
78562;BME280;68963;52.138;5.446;2023-06-01T02:00:56;102563.03;;;11.50;88.28
78562;BME280;68963;52.138;5.446;2023-06-01T02:03:24;102557.59;;;11.52;88.04
78562;BME280;68963;52.138;5.446;2023-06-01T02:05:51;102564.69;;;11.51;88.20
78562;BME280;68963;52.138;5.446;2023-06-01T02:08:17;102557.28;;;11.55;88.38
78562;BME280;68963;52.138;5.446;2023-06-01T02:10:44;102561.22;;;11.51;88.44
78562;BME280;68963;52.138;5.446;2023-06-01T02:13:11;102566.50;;;11.51;88.44
78562;BME280;68963;52.138;5.446;2023-06-01T02:15:37;102556.63;;;11.53;88.02
78562;BME280;68963;52.138;5.446;2023-06-01T02:18:04;102565.50;;;11.52;87.33
78562;BME280;68963;52.138;5.446;2023-06-01T02:20:31;102566.78;;;11.48;87.17
78562;BME280;68963;52.138;5.446;2023-06-01T02:22:58;102565.59;;;11.42;86.77
78562;BME280;68963;52.138;5.446;2023-06-01T02:25:24;102566.28;;;11.44;87.07
78562;BME280;68963;52.138;5.446;2023-06-01T02:27:51;102566.28;;;11.44;86.82
78562;BME280;68963;52.138;5.446;2023-06-01T02:30:18;102562.56;;;11.37;86.62
78562;BME280;68963;52.138;5.446;2023-06-01T02:32:44;102557.53;;;11.26;87.48
78562;BME280;68963;52.138;5.446;2023-06-01T02:35:12;102561.97;;;11.25;87.76
78562;BME280;68963;52.138;5.446;2023-06-01T02:37:38;102558.13;;;11.20;88.25
78562;BME280;68963;52.138;5.446;2023-06-01T02:40:06;102555.63;;;11.18;88.71
78562;BME280;68963;52.138;5.446;2023-06-01T02:42:37;102556.31;;;11.20;88.44
78562;BME280;68963;52.138;5.446;2023-06-01T02:45:06;102553.44;;;11.13;88.81
78562;BME280;68963;52.138;5.446;2023-06-01T02:47:32;102547.47;;;11.11;89.29
78562;BME280;68963;52.138;5.446;2023-06-01T02:49:59;102556.75;;;11.16;89.22
78562;BME280;68963;52.138;5.446;2023-06-01T02:52:26;102555.19;;;11.23;88.67
78562;BME280;68963;52.138;5.446;2023-06-01T02:54:52;102556.84;;;11.24;88.11
78562;BME280;68963;52.138;5.446;2023-06-01T02:57:19;102560.03;;;11.27;88.44
78562;BME280;68963;52.138;5.446;2023-06-01T02:59:45;102554.28;;;11.32;88.47
78562;BME280;68963;52.138;5.446;2023-06-01T03:02:12;102557.28;;;11.37;87.96
78562;BME280;68963;52.138;5.446;2023-06-01T03:04:38;102553.00;;;11.36;88.12
78562;BME280;68963;52.138;5.446;2023-06-01T03:07:05;102553.75;;;11.28;88.12
78562;BME280;68963;52.138;5.446;2023-06-01T03:09:31;102553.69;;;11.20;87.82
78562;BME280;68963;52.138;5.446;2023-06-01T03:11:58;102543.34;;;11.09;87.76
78562;BME280;68963;52.138;5.446;2023-06-01T03:14:24;102544.94;;;11.02;88.57
78562;BME280;68963;52.138;5.446;2023-06-01T03:16:51;102549.06;;;11.04;88.36
78562;BME280;68963;52.138;5.446;2023-06-01T03:19:18;102540.84;;;11.07;88.45
78562;BME280;68963;52.138;5.446;2023-06-01T03:21:45;102544.31;;;11.08;88.35
78562;BME280;68963;52.138;5.446;2023-06-01T03:24:13;102558.94;;;11.02;88.49
78562;BME280;68963;52.138;5.446;2023-06-01T03:26:41;102552.44;;;10.97;88.97
78562;BME280;68963;52.138;5.446;2023-06-01T03:29:07;102552.22;;;10.90;88.75
78562;BME280;68963;52.138;5.446;2023-06-01T03:31:34;102556.22;;;10.94;89.20
78562;BME280;68963;52.138;5.446;2023-06-01T03:34:01;102555.22;;;10.95;88.93
78562;BME280;68963;52.138;5.446;2023-06-01T03:36:28;102543.56;;;10.98;88.87
78562;BME280;68963;52.138;5.446;2023-06-01T03:38:54;102541.88;;;10.97;89.20
78562;BME280;68963;52.138;5.446;2023-06-01T03:41:21;102537.03;;;11.02;88.86
78562;BME280;68963;52.138;5.446;2023-06-01T03:43:48;102539.50;;;11.03;88.79
78562;BME280;68963;52.138;5.446;2023-06-01T03:46:14;102540.59;;;11.01;89.07
78562;BME280;68963;52.138;5.446;2023-06-01T03:48:41;102535.50;;;10.99;89.35
78562;BME280;68963;52.138;5.446;2023-06-01T03:51:08;102538.59;;;10.95;89.73
78562;BME280;68963;52.138;5.446;2023-06-01T03:53:34;102540.59;;;11.01;89.75
78562;BME280;68963;52.138;5.446;2023-06-01T03:56:01;102541.47;;;11.01;89.80
78562;BME280;68963;52.138;5.446;2023-06-01T03:58:29;102540.47;;;11.02;89.48
78562;BME280;68963;52.138;5.446;2023-06-01T04:00:56;102548.09;;;11.05;89.65
78562;BME280;68963;52.138;5.446;2023-06-01T04:03:24;102551.28;;;11.09;89.55
78562;BME280;68963;52.138;5.446;2023-06-01T04:05:52;102553.63;;;11.12;89.54
78562;BME280;68963;52.138;5.446;2023-06-01T04:08:27;102545.78;;;11.20;89.63
78562;BME280;68963;52.138;5.446;2023-06-01T04:10:55;102539.22;;;11.24;89.18
78562;BME280;68963;52.138;5.446;2023-06-01T04:13:22;102534.41;;;11.20;88.75
78562;BME280;68963;52.138;5.446;2023-06-01T04:15:48;102529.78;;;11.22;88.62
78562;BME280;68963;52.138;5.446;2023-06-01T04:18:15;102542.31;;;11.20;88.54
78562;BME280;68963;52.138;5.446;2023-06-01T04:20:42;102538.69;;;11.21;89.21
78562;BME280;68963;52.138;5.446;2023-06-01T04:23:08;102542.84;;;11.23;88.64
78562;BME280;68963;52.138;5.446;2023-06-01T04:25:35;102546.59;;;11.21;88.63
78562;BME280;68963;52.138;5.446;2023-06-01T04:28:01;102548.25;;;11.22;88.32
78562;BME280;68963;52.138;5.446;2023-06-01T04:30:28;102546.31;;;11.24;88.18
78562;BME280;68963;52.138;5.446;2023-06-01T04:32:54;102542.00;;;11.23;87.92
78562;BME280;68963;52.138;5.446;2023-06-01T04:35:21;102547.78;;;11.26;87.95
78562;BME280;68963;52.138;5.446;2023-06-01T04:37:48;102556.03;;;11.23;87.57
78562;BME280;68963;52.138;5.446;2023-06-01T04:40:15;102555.03;;;11.24;87.37
78562;BME280;68963;52.138;5.446;2023-06-01T04:42:43;102556.22;;;11.30;87.08
78562;BME280;68963;52.138;5.446;2023-06-01T04:45:16;102549.69;;;11.34;87.08
78562;BME280;68963;52.138;5.446;2023-06-01T04:47:42;102548.72;;;11.35;87.19
78562;BME280;68963;52.138;5.446;2023-06-01T04:50:12;102552.13;;;11.27;87.30
78562;BME280;68963;52.138;5.446;2023-06-01T04:52:40;102551.34;;;11.17;87.64
78562;BME280;68963;52.138;5.446;2023-06-01T04:55:08;102552.69;;;11.21;87.80
78562;BME280;68963;52.138;5.446;2023-06-01T04:57:36;102553.94;;;11.27;87.90
78562;BME280;68963;52.138;5.446;2023-06-01T05:00:03;102556.78;;;11.33;87.86
78562;BME280;68963;52.138;5.446;2023-06-01T05:02:39;102548.78;;;11.43;87.75
78562;BME280;68963;52.138;5.446;2023-06-01T05:05:06;102557.06;;;11.48;87.15
78562;BME280;68963;52.138;5.446;2023-06-01T05:07:34;102552.13;;;11.45;87.68
78562;BME280;68963;52.138;5.446;2023-06-01T05:10:06;102554.13;;;11.51;87.89
78562;BME280;68963;52.138;5.446;2023-06-01T05:12:34;102552.41;;;11.60;87.46
78562;BME280;68963;52.138;5.446;2023-06-01T05:15:04;102552.78;;;11.65;87.11
78562;BME280;68963;52.138;5.446;2023-06-01T05:17:31;102558.41;;;11.70;87.19
78562;BME280;68963;52.138;5.446;2023-06-01T05:19:57;102559.31;;;11.79;86.66
78562;BME280;68963;52.138;5.446;2023-06-01T05:22:24;102557.81;;;11.76;86.30
78562;BME280;68963;52.138;5.446;2023-06-01T05:24:51;102562.94;;;11.78;86.71
78562;BME280;68963;52.138;5.446;2023-06-01T05:27:18;102566.50;;;11.87;86.00
78562;BME280;68963;52.138;5.446;2023-06-01T05:29:45;102557.44;;;11.89;85.78
78562;BME280;68963;52.138;5.446;2023-06-01T05:32:12;102560.81;;;11.81;86.42
78562;BME280;68963;52.138;5.446;2023-06-01T05:34:38;102559.53;;;11.85;86.04
78562;BME280;68963;52.138;5.446;2023-06-01T05:37:05;102557.06;;;11.84;85.89
78562;BME280;68963;52.138;5.446;2023-06-01T05:39:31;102552.31;;;11.88;86.07
78562;BME280;68963;52.138;5.446;2023-06-01T05:41:58;102558.47;;;11.96;85.80
78562;BME280;68963;52.138;5.446;2023-06-01T05:44:25;102561.09;;;11.96;85.20
78562;BME280;68963;52.138;5.446;2023-06-01T05:46:51;102558.13;;;11.91;85.29
78562;BME280;68963;52.138;5.446;2023-06-01T05:49:19;102570.31;;;11.92;85.47
78562;BME280;68963;52.138;5.446;2023-06-01T05:51:46;102565.78;;;12.02;85.67
78562;BME280;68963;52.138;5.446;2023-06-01T05:54:12;102568.47;;;12.11;85.93
78562;BME280;68963;52.138;5.446;2023-06-01T05:56:39;102561.06;;;12.14;85.01
78562;BME280;68963;52.138;5.446;2023-06-01T05:59:07;102565.91;;;12.19;84.45
78562;BME280;68963;52.138;5.446;2023-06-01T06:01:33;102575.19;;;12.23;83.93
78562;BME280;68963;52.138;5.446;2023-06-01T06:04:00;102571.19;;;12.19;83.32
78562;BME280;68963;52.138;5.446;2023-06-01T06:06:26;102564.78;;;12.29;83.28
78562;BME280;68963;52.138;5.446;2023-06-01T06:08:53;102569.25;;;12.29;83.19
78562;BME280;68963;52.138;5.446;2023-06-01T06:11:20;102572.56;;;12.31;83.57
78562;BME280;68963;52.138;5.446;2023-06-01T06:13:48;102567.34;;;12.39;83.57
78562;BME280;68963;52.138;5.446;2023-06-01T06:16:16;102558.31;;;12.50;82.09
78562;BME280;68963;52.138;5.446;2023-06-01T06:18:43;102562.38;;;12.44;81.78
78562;BME280;68963;52.138;5.446;2023-06-01T06:21:09;102570.28;;;12.36;82.28
78562;BME280;68963;52.138;5.446;2023-06-01T06:23:36;102562.84;;;12.31;82.65
78562;BME280;68963;52.138;5.446;2023-06-01T06:26:03;102566.19;;;12.42;82.90
78562;BME280;68963;52.138;5.446;2023-06-01T06:28:30;102559.63;;;12.54;82.25
78562;BME280;68963;52.138;5.446;2023-06-01T06:30:57;102554.34;;;12.54;81.42
78562;BME280;68963;52.138;5.446;2023-06-01T06:33:23;102559.47;;;12.55;81.12
78562;BME280;68963;52.138;5.446;2023-06-01T06:35:50;102552.72;;;12.61;81.39
78562;BME280;68963;52.138;5.446;2023-06-01T06:38:16;102560.84;;;12.60;81.78
78562;BME280;68963;52.138;5.446;2023-06-01T06:40:43;102556.41;;;12.68;81.73
78562;BME280;68963;52.138;5.446;2023-06-01T06:43:10;102554.91;;;12.74;81.56
78562;BME280;68963;52.138;5.446;2023-06-01T06:45:36;102562.59;;;12.93;81.50
78562;BME280;68963;52.138;5.446;2023-06-01T06:48:03;102560.19;;;13.16;80.27
78562;BME280;68963;52.138;5.446;2023-06-01T06:50:30;102563.53;;;13.26;80.07
78562;BME280;68963;52.138;5.446;2023-06-01T06:52:57;102558.25;;;13.51;79.54
78562;BME280;68963;52.138;5.446;2023-06-01T06:55:25;102571.81;;;13.32;79.17
78562;BME280;68963;52.138;5.446;2023-06-01T06:57:52;102568.28;;;13.23;77.62
78562;BME280;68963;52.138;5.446;2023-06-01T07:00:19;102569.97;;;13.24;77.42
78562;BME280;68963;52.138;5.446;2023-06-01T07:02:46;102569.47;;;13.28;78.22
78562;BME280;68963;52.138;5.446;2023-06-01T07:05:13;102574.13;;;13.26;77.00
78562;BME280;68963;52.138;5.446;2023-06-01T07:07:41;102574.72;;;13.20;77.64
78562;BME280;68963;52.138;5.446;2023-06-01T07:10:08;102582.25;;;13.33;77.50
78562;BME280;68963;52.138;5.446;2023-06-01T07:12:34;102578.94;;;13.39;76.21
78562;BME280;68963;52.138;5.446;2023-06-01T07:15:02;102582.41;;;13.40;76.42
78562;BME280;68963;52.138;5.446;2023-06-01T07:17:28;102579.94;;;13.38;76.82
78562;BME280;68963;52.138;5.446;2023-06-01T07:19:55;102576.00;;;13.59;76.54
78562;BME280;68963;52.138;5.446;2023-06-01T07:22:22;102579.94;;;13.71;76.36
78562;BME280;68963;52.138;5.446;2023-06-01T07:24:48;102568.22;;;13.73;75.35
78562;BME280;68963;52.138;5.446;2023-06-01T07:27:16;102571.00;;;13.72;76.09
78562;BME280;68963;52.138;5.446;2023-06-01T07:29:43;102571.69;;;13.74;74.70
78562;BME280;68963;52.138;5.446;2023-06-01T07:32:11;102569.19;;;13.64;75.40
78562;BME280;68963;52.138;5.446;2023-06-01T07:34:38;102575.47;;;13.80;74.77
78562;BME280;68963;52.138;5.446;2023-06-01T07:37:04;102565.53;;;13.90;74.94
78562;BME280;68963;52.138;5.446;2023-06-01T07:39:43;102578.75;;;14.06;74.84
78562;BME280;68963;52.138;5.446;2023-06-01T07:42:09;102568.47;;;14.19;73.23
78562;BME280;68963;52.138;5.446;2023-06-01T07:44:36;102568.50;;;14.11;72.81
78562;BME280;68963;52.138;5.446;2023-06-01T07:47:03;102570.44;;;14.17;73.34
78562;BME280;68963;52.138;5.446;2023-06-01T07:49:30;102572.72;;;14.45;73.04
78562;BME280;68963;52.138;5.446;2023-06-01T07:51:56;102579.03;;;14.44;72.17
78562;BME280;68963;52.138;5.446;2023-06-01T07:54:25;102571.50;;;14.64;72.56
78562;BME280;68963;52.138;5.446;2023-06-01T07:56:52;102577.09;;;14.77;71.46
78562;BME280;68963;52.138;5.446;2023-06-01T07:59:19;102570.88;;;14.54;72.29
78562;BME280;68963;52.138;5.446;2023-06-01T08:01:50;102576.38;;;14.52;72.74
78562;BME280;68963;52.138;5.446;2023-06-01T08:04:18;102568.81;;;14.80;72.32
78562;BME280;68963;52.138;5.446;2023-06-01T08:06:49;102567.56;;;14.91;70.66
78562;BME280;68963;52.138;5.446;2023-06-01T08:09:20;102562.50;;;14.81;70.70
78562;BME280;68963;52.138;5.446;2023-06-01T08:11:48;102557.72;;;14.77;70.12
78562;BME280;68963;52.138;5.446;2023-06-01T08:14:16;102556.84;;;14.84;71.26
78562;BME280;68963;52.138;5.446;2023-06-01T08:16:42;102549.66;;;14.93;70.71
78562;BME280;68963;52.138;5.446;2023-06-01T08:19:09;102555.63;;;14.95;70.77
78562;BME280;68963;52.138;5.446;2023-06-01T08:21:36;102561.78;;;14.87;70.62
78562;BME280;68963;52.138;5.446;2023-06-01T08:24:03;102557.13;;;14.89;70.35
78562;BME280;68963;52.138;5.446;2023-06-01T08:26:30;102559.75;;;14.97;69.15
78562;BME280;68963;52.138;5.446;2023-06-01T08:28:56;102559.78;;;14.89;69.69
78562;BME280;68963;52.138;5.446;2023-06-01T08:31:24;102556.66;;;14.86;69.69
78562;BME280;68963;52.138;5.446;2023-06-01T08:33:52;102552.16;;;15.17;69.48
78562;BME280;68963;52.138;5.446;2023-06-01T08:36:20;102548.53;;;15.56;68.44
78562;BME280;68963;52.138;5.446;2023-06-01T08:38:48;102535.72;;;15.83;68.17
78562;BME280;68963;52.138;5.446;2023-06-01T08:41:39;102535.56;;;15.99;67.51
78562;BME280;68963;52.138;5.446;2023-06-01T08:44:08;102538.69;;;16.17;67.79
78562;BME280;68963;52.138;5.446;2023-06-01T08:46:39;102542.63;;;16.07;66.43
78562;BME280;68963;52.138;5.446;2023-06-01T08:49:10;102539.25;;;15.98;65.64
78562;BME280;68963;52.138;5.446;2023-06-01T08:51:39;102540.56;;;15.79;68.30
78562;BME280;68963;52.138;5.446;2023-06-01T08:54:09;102537.88;;;16.02;66.88
78562;BME280;68963;52.138;5.446;2023-06-01T08:56:37;102539.44;;;16.26;65.42
78562;BME280;68963;52.138;5.446;2023-06-01T08:59:11;102533.72;;;16.59;65.38
78562;BME280;68963;52.138;5.446;2023-06-01T09:01:40;102533.06;;;16.57;66.15
78562;BME280;68963;52.138;5.446;2023-06-01T09:04:07;102536.59;;;16.42;65.77
78562;BME280;68963;52.138;5.446;2023-06-01T09:06:36;102540.59;;;16.24;65.11
78562;BME280;68963;52.138;5.446;2023-06-01T09:09:05;102536.13;;;16.39;65.47
78562;BME280;68963;52.138;5.446;2023-06-01T09:11:37;102529.50;;;16.64;65.51
78562;BME280;68963;52.138;5.446;2023-06-01T09:14:24;102525.09;;;16.72;66.20
78562;BME280;68963;52.138;5.446;2023-06-01T09:16:51;102529.75;;;16.70;64.43
78562;BME280;68963;52.138;5.446;2023-06-01T09:19:18;102527.75;;;16.57;64.41
78562;BME280;68963;52.138;5.446;2023-06-01T09:21:57;102529.97;;;16.53;65.89
78562;BME280;68963;52.138;5.446;2023-06-01T09:24:25;102526.00;;;16.64;64.34
78562;BME280;68963;52.138;5.446;2023-06-01T09:26:58;102530.03;;;16.60;65.27
78562;BME280;68963;52.138;5.446;2023-06-01T09:29:29;102530.22;;;16.58;65.29
78562;BME280;68963;52.138;5.446;2023-06-01T09:31:55;102514.75;;;16.98;65.24
78562;BME280;68963;52.138;5.446;2023-06-01T09:34:22;102510.06;;;17.22;63.74
78562;BME280;68963;52.138;5.446;2023-06-01T09:36:54;102506.44;;;17.29;62.59
78562;BME280;68963;52.138;5.446;2023-06-01T09:39:22;102508.41;;;17.21;63.76
78562;BME280;68963;52.138;5.446;2023-06-01T09:44:36;102500.47;;;16.70;63.61
78562;BME280;68963;52.138;5.446;2023-06-01T09:47:10;102506.09;;;16.60;63.18
78562;BME280;68963;52.138;5.446;2023-06-01T09:49:43;102503.44;;;16.60;63.68
78562;BME280;68963;52.138;5.446;2023-06-01T09:52:14;102505.84;;;16.55;64.31
78562;BME280;68963;52.138;5.446;2023-06-01T09:54:51;102501.88;;;16.65;64.03
78562;BME280;68963;52.138;5.446;2023-06-01T09:57:26;102500.41;;;16.63;64.09
78562;BME280;68963;52.138;5.446;2023-06-01T09:59:55;102499.38;;;16.79;63.68
78562;BME280;68963;52.138;5.446;2023-06-01T10:02:23;102501.75;;;16.88;63.23
78562;BME280;68963;52.138;5.446;2023-06-01T10:04:52;102497.38;;;17.02;63.64
78562;BME280;68963;52.138;5.446;2023-06-01T10:07:21;102490.44;;;17.29;61.89
78562;BME280;68963;52.138;5.446;2023-06-01T10:09:51;102495.03;;;17.14;61.66
78562;BME280;68963;52.138;5.446;2023-06-01T10:12:20;102494.22;;;17.13;62.16
78562;BME280;68963;52.138;5.446;2023-06-01T10:14:48;102493.94;;;17.30;63.13
78562;BME280;68963;52.138;5.446;2023-06-01T10:17:16;102502.13;;;17.07;61.63
78562;BME280;68963;52.138;5.446;2023-06-01T10:19:44;102493.69;;;17.03;62.61
78562;BME280;68963;52.138;5.446;2023-06-01T10:22:11;102481.78;;;17.21;61.56
78562;BME280;68963;52.138;5.446;2023-06-01T10:24:39;102496.81;;;17.28;59.87
78562;BME280;68963;52.138;5.446;2023-06-01T10:29:37;102499.91;;;17.32;59.84
78562;BME280;68963;52.138;5.446;2023-06-01T10:32:05;102492.66;;;17.26;60.83
78562;BME280;68963;52.138;5.446;2023-06-01T10:34:52;102491.00;;;17.46;60.72
78562;BME280;68963;52.138;5.446;2023-06-01T10:37:19;102498.91;;;17.82;61.23
78562;BME280;68963;52.138;5.446;2023-06-01T10:39:46;102494.56;;;18.16;59.03
78562;BME280;68963;52.138;5.446;2023-06-01T10:52:32;102496.44;;;17.59;60.60
78562;BME280;68963;52.138;5.446;2023-06-01T11:00:24;102486.31;;;18.04;59.49
78562;BME280;68963;52.138;5.446;2023-06-01T11:02:59;102489.28;;;18.23;59.28
78562;BME280;68963;52.138;5.446;2023-06-01T11:08:49;102478.25;;;18.39;58.00
78562;BME280;68963;52.138;5.446;2023-06-01T11:10:57;102486.03;;;18.41;57.77
78562;BME280;68963;52.138;5.446;2023-06-01T11:13:34;102481.28;;;18.29;58.55
78562;BME280;68963;52.138;5.446;2023-06-01T11:21:18;102463.69;;;18.42;57.15
78562;BME280;68963;52.138;5.446;2023-06-01T11:23:45;102479.44;;;18.23;58.29
78562;BME280;68963;52.138;5.446;2023-06-01T11:26:15;102483.44;;;18.06;58.64
78562;BME280;68963;52.138;5.446;2023-06-01T11:28:43;102477.66;;;18.44;57.64
78562;BME280;68963;52.138;5.446;2023-06-01T11:31:15;102469.41;;;18.93;55.95
78562;BME280;68963;52.138;5.446;2023-06-01T11:33:52;102466.50;;;18.81;56.77
78562;BME280;68963;52.138;5.446;2023-06-01T11:39:19;102468.16;;;18.82;57.81
78562;BME280;68963;52.138;5.446;2023-06-01T11:41:51;102460.78;;;19.44;57.09
78562;BME280;68963;52.138;5.446;2023-06-01T11:44:19;102463.44;;;19.24;55.84
78562;BME280;68963;52.138;5.446;2023-06-01T11:47:19;102462.41;;;19.39;57.38
78562;BME280;68963;52.138;5.446;2023-06-01T11:50:09;102461.59;;;19.31;56.48
78562;BME280;68963;52.138;5.446;2023-06-01T11:52:51;102468.81;;;19.38;56.21
78562;BME280;68963;52.138;5.446;2023-06-01T11:55:19;102461.09;;;19.94;54.60
78562;BME280;68963;52.138;5.446;2023-06-01T11:57:49;102467.94;;;19.77;54.82
78562;BME280;68963;52.138;5.446;2023-06-01T12:00:18;102462.63;;;19.30;56.81
78562;BME280;68963;52.138;5.446;2023-06-01T12:02:46;102472.69;;;19.82;55.62
78562;BME280;68963;52.138;5.446;2023-06-01T12:05:15;102468.78;;;19.77;53.91
78562;BME280;68963;52.138;5.446;2023-06-01T12:07:51;102471.38;;;20.11;55.75
78562;BME280;68963;52.138;5.446;2023-06-01T12:10:28;102474.00;;;20.17;53.48
78562;BME280;68963;52.138;5.446;2023-06-01T12:12:55;102474.53;;;19.54;55.66
78562;BME280;68963;52.138;5.446;2023-06-01T12:15:23;102481.31;;;19.17;58.19
78562;BME280;68963;52.138;5.446;2023-06-01T12:17:55;102472.06;;;19.13;57.98
78562;BME280;68963;52.138;5.446;2023-06-01T12:20:30;102473.72;;;19.01;58.07
78562;BME280;68963;52.138;5.446;2023-06-01T12:22:58;102491.50;;;18.67;57.76
78562;BME280;68963;52.138;5.446;2023-06-01T12:25:27;102485.06;;;18.55;59.09
78562;BME280;68963;52.138;5.446;2023-06-01T12:28:07;102490.69;;;18.25;60.41
78562;BME280;68963;52.138;5.446;2023-06-01T12:30:35;102491.59;;;17.98;61.08
78562;BME280;68963;52.138;5.446;2023-06-01T12:33:02;102489.31;;;17.95;60.83
78562;BME280;68963;52.138;5.446;2023-06-01T12:35:32;102489.28;;;17.88;61.47
78562;BME280;68963;52.138;5.446;2023-06-01T12:38:06;102496.78;;;17.78;61.78
78562;BME280;68963;52.138;5.446;2023-06-01T12:40:36;102493.44;;;17.97;61.35
78562;BME280;68963;52.138;5.446;2023-06-01T12:43:20;102493.28;;;18.05;61.46
78562;BME280;68963;52.138;5.446;2023-06-01T12:45:47;102492.41;;;17.98;61.05
78562;BME280;68963;52.138;5.446;2023-06-01T12:48:32;102486.22;;;17.91;61.73
78562;BME280;68963;52.138;5.446;2023-06-01T12:50:59;102486.28;;;17.98;61.95
78562;BME280;68963;52.138;5.446;2023-06-01T12:53:27;102489.97;;;18.03;61.25
78562;BME280;68963;52.138;5.446;2023-06-01T12:55:54;102489.06;;;17.83;61.49
78562;BME280;68963;52.138;5.446;2023-06-01T12:58:22;102491.16;;;17.66;63.16
78562;BME280;68963;52.138;5.446;2023-06-01T13:00:48;102491.44;;;17.50;62.78
78562;BME280;68963;52.138;5.446;2023-06-01T13:03:23;102482.97;;;17.18;63.69
78562;BME280;68963;52.138;5.446;2023-06-01T13:05:51;102486.31;;;17.27;63.78
78562;BME280;68963;52.138;5.446;2023-06-01T13:08:18;102489.69;;;17.35;63.78
78562;BME280;68963;52.138;5.446;2023-06-01T13:10:46;102489.78;;;17.49;64.81
78562;BME280;68963;52.138;5.446;2023-06-01T13:13:13;102488.97;;;17.48;63.36
78562;BME280;68963;52.138;5.446;2023-06-01T13:15:40;102476.66;;;17.47;63.54
78562;BME280;68963;52.138;5.446;2023-06-01T13:18:07;102479.03;;;17.63;64.06
78562;BME280;68963;52.138;5.446;2023-06-01T13:20:35;102478.47;;;17.68;63.67
78562;BME280;68963;52.138;5.446;2023-06-01T13:23:02;102482.03;;;17.75;63.66
78562;BME280;68963;52.138;5.446;2023-06-01T13:25:31;102476.84;;;17.74;62.87
78562;BME280;68963;52.138;5.446;2023-06-01T13:28:00;102478.41;;;17.61;63.02
78562;BME280;68963;52.138;5.446;2023-06-01T13:30:27;102471.03;;;17.63;64.12
78562;BME280;68963;52.138;5.446;2023-06-01T13:32:58;102479.53;;;17.46;64.24
78562;BME280;68963;52.138;5.446;2023-06-01T13:35:25;102473.97;;;17.19;66.14